Aviation Digital Data Service (ADDS)

Output produced by METARs form (0845 UTC 01 August 2021)
found at http://www.aviationweather.gov/metar/data/
 
METAR text: KRNH 010835Z AUTO 00000KT 5SM HZ CLR 14/11 A3009 RMK AO2 T01380111
Conditions at: KRNH (NEW RICHMOND MUN, WI, US) observed 0835 UTC 01 August 2021
Temperature: 13.8°C (57°F)
Dewpoint: 11.1°C (52°F) [RH = 84%]
Pressure (altimeter): 30.09 inches Hg (1019.0 mb)
Winds: calm
Visibility: 5 miles ( 8 km)
Ceiling: at least 12,000 feet AGL
Clouds: sky clear below 12,000 feet AGL
Weather: HZ  (haze)

METAR text: KRNH 010815Z AUTO 00000KT 5SM HZ CLR 14/11 A3009 RMK AO2 T01370111
Conditions at: KRNH (NEW RICHMOND MUN, WI, US) observed 0815 UTC 01 August 2021
Temperature: 13.7°C (57°F)
Dewpoint: 11.1°C (52°F) [RH = 84%]
Pressure (altimeter): 30.09 inches Hg (1019.0 mb)
Winds: calm
Visibility: 5 miles ( 8 km)
Ceiling: at least 12,000 feet AGL
Clouds: sky clear below 12,000 feet AGL
Weather: HZ  (haze)

METAR text: KRNH 010755Z AUTO 01003KT 5SM HZ CLR 14/11 A3009 RMK AO2 T01440114
Conditions at: KRNH (NEW RICHMOND MUN, WI, US) observed 0755 UTC 01 August 2021
Temperature: 14.4°C (58°F)
Dewpoint: 11.4°C (53°F) [RH = 82%]
Pressure (altimeter): 30.09 inches Hg (1019.0 mb)
Winds: from the N (10 degrees) at 3 MPH (3 knots; 1.5 m/s)
Visibility: 5 miles ( 8 km)
Ceiling: at least 12,000 feet AGL
Clouds: sky clear below 12,000 feet AGL
Weather: HZ  (haze)

Forecast for: KRNH (NEW RICHMOND MUN, WI, US)
Text: KRNH 010520Z 0106/0206 34004KT 6SM FU SCT250
Forecast period: 0600 to 1700 UTC 01 August 2021
Forecast type: FROM: standard forecast or significant change
Winds: from the NNW (340 degrees) at 5 MPH (4 knots; 2.1 m/s)
Visibility: 6 miles (10 km)
Ceiling: at least 12,000 feet AGL
Clouds: scattered clouds at 25000 feet AGL
Weather: FU  (smoke)
Text: FM011700 02008KT 6SM FU SCT250
Forecast period: 1700 UTC 01 August 2021 to 0100 UTC 02 August 2021
Forecast type: FROM: standard forecast or significant change
Winds: from the NNE (20 degrees) at 9 MPH (8 knots; 4.1 m/s)
Visibility: 6 miles (10 km)
Ceiling: at least 12,000 feet AGL
Clouds: scattered clouds at 25000 feet AGL
Weather: FU  (smoke)
Text: FM020100 05004KT 6SM FU SKC
Forecast period: 0100 to 0600 UTC 02 August 2021
Forecast type: FROM: standard forecast or significant change
Winds: from the NE (50 degrees) at 5 MPH (4 knots; 2.1 m/s)
Visibility: 6 miles (10 km)
Clouds: clear skies
Weather: FU  (smoke)